sensor_id;sensor_type;location;lat;lon;timestamp;P1;durP1;ratioP1;P2;durP2;ratioP2
3959;SDS011;1994;48.640;8.894;2022-12-10T00:01:09;26.53;;;13.63;;
3959;SDS011;1994;48.640;8.894;2022-12-10T00:03:39;34.13;;;15.63;;
3959;SDS011;1994;48.640;8.894;2022-12-10T00:06:06;34.93;;;15.60;;
3959;SDS011;1994;48.640;8.894;2022-12-10T00:08:35;22.80;;;13.57;;
3959;SDS011;1994;48.640;8.894;2022-12-10T00:11:02;28.03;;;14.70;;
3959;SDS011;1994;48.640;8.894;2022-12-10T00:13:30;34.07;;;16.00;;
3959;SDS011;1994;48.640;8.894;2022-12-10T00:16:01;27.37;;;15.50;;
3959;SDS011;1994;48.640;8.894;2022-12-10T00:18:29;32.93;;;14.77;;
3959;SDS011;1994;48.640;8.894;2022-12-10T00:20:55;25.03;;;15.13;;
3959;SDS011;1994;48.640;8.894;2022-12-10T00:23:21;28.00;;;14.97;;
3959;SDS011;1994;48.640;8.894;2022-12-10T00:25:47;21.93;;;12.50;;
3959;SDS011;1994;48.640;8.894;2022-12-10T00:28:13;21.93;;;15.07;;
3959;SDS011;1994;48.640;8.894;2022-12-10T00:30:38;27.53;;;16.33;;
3959;SDS011;1994;48.640;8.894;2022-12-10T00:33:04;28.40;;;16.13;;
3959;SDS011;1994;48.640;8.894;2022-12-10T00:35:30;26.93;;;14.83;;
3959;SDS011;1994;48.640;8.894;2022-12-10T00:37:56;23.60;;;14.30;;
3959;SDS011;1994;48.640;8.894;2022-12-10T00:40:22;24.63;;;13.10;;
3959;SDS011;1994;48.640;8.894;2022-12-10T00:42:49;24.27;;;13.97;;
3959;SDS011;1994;48.640;8.894;2022-12-10T00:45:14;26.73;;;14.60;;
3959;SDS011;1994;48.640;8.894;2022-12-10T00:47:40;26.60;;;15.10;;
3959;SDS011;1994;48.640;8.894;2022-12-10T00:50:06;23.10;;;13.10;;
3959;SDS011;1994;48.640;8.894;2022-12-10T00:52:32;19.07;;;12.73;;
3959;SDS011;1994;48.640;8.894;2022-12-10T00:54:58;31.50;;;15.33;;
3959;SDS011;1994;48.640;8.894;2022-12-10T00:57:23;30.77;;;14.37;;
3959;SDS011;1994;48.640;8.894;2022-12-10T00:59:49;26.60;;;14.10;;
3959;SDS011;1994;48.640;8.894;2022-12-10T01:02:15;25.00;;;14.13;;
3959;SDS011;1994;48.640;8.894;2022-12-10T01:04:40;34.87;;;13.43;;
3959;SDS011;1994;48.640;8.894;2022-12-10T01:07:06;28.63;;;15.87;;
3959;SDS011;1994;48.640;8.894;2022-12-10T01:09:32;24.40;;;13.47;;
3959;SDS011;1994;48.640;8.894;2022-12-10T01:12:00;22.13;;;14.07;;
3959;SDS011;1994;48.640;8.894;2022-12-10T01:14:28;26.00;;;14.10;;
3959;SDS011;1994;48.640;8.894;2022-12-10T01:16:57;28.13;;;14.20;;
3959;SDS011;1994;48.640;8.894;2022-12-10T01:19:27;31.60;;;15.83;;
3959;SDS011;1994;48.640;8.894;2022-12-10T01:21:54;22.77;;;13.10;;
3959;SDS011;1994;48.640;8.894;2022-12-10T01:24:21;26.67;;;14.67;;
3959;SDS011;1994;48.640;8.894;2022-12-10T01:26:49;27.57;;;13.90;;
3959;SDS011;1994;48.640;8.894;2022-12-10T01:29:16;29.77;;;15.43;;
3959;SDS011;1994;48.640;8.894;2022-12-10T01:31:42;21.80;;;14.00;;
3959;SDS011;1994;48.640;8.894;2022-12-10T01:34:10;29.60;;;13.70;;
3959;SDS011;1994;48.640;8.894;2022-12-10T01:36:40;27.47;;;13.57;;
3959;SDS011;1994;48.640;8.894;2022-12-10T01:39:10;29.53;;;14.67;;
3959;SDS011;1994;48.640;8.894;2022-12-10T01:41:44;25.37;;;15.07;;
3959;SDS011;1994;48.640;8.894;2022-12-10T01:46:40;21.90;;;13.47;;
3959;SDS011;1994;48.640;8.894;2022-12-10T01:49:13;24.43;;;14.70;;
3959;SDS011;1994;48.640;8.894;2022-12-10T01:51:52;22.57;;;13.20;;
3959;SDS011;1994;48.640;8.894;2022-12-10T01:57:01;22.73;;;13.70;;
3959;SDS011;1994;48.640;8.894;2022-12-10T01:59:33;23.23;;;13.10;;
3959;SDS011;1994;48.640;8.894;2022-12-10T02:02:03;23.20;;;14.63;;
3959;SDS011;1994;48.640;8.894;2022-12-10T02:04:59;22.83;;;12.63;;
3959;SDS011;1994;48.640;8.894;2022-12-10T02:07:53;32.57;;;14.73;;
3959;SDS011;1994;48.640;8.894;2022-12-10T02:10:59;22.63;;;13.50;;
3959;SDS011;1994;48.640;8.894;2022-12-10T02:16:47;26.30;;;13.70;;
3959;SDS011;1994;48.640;8.894;2022-12-10T02:22:00;23.40;;;14.00;;
3959;SDS011;1994;48.640;8.894;2022-12-10T02:24:28;28.40;;;13.97;;
3959;SDS011;1994;48.640;8.894;2022-12-10T02:27:02;23.00;;;13.80;;
3959;SDS011;1994;48.640;8.894;2022-12-10T02:29:49;25.20;;;14.87;;
3959;SDS011;1994;48.640;8.894;2022-12-10T02:32:18;28.70;;;13.97;;
3959;SDS011;1994;48.640;8.894;2022-12-10T02:34:55;26.83;;;14.67;;
3959;SDS011;1994;48.640;8.894;2022-12-10T02:37:29;30.80;;;15.40;;
3959;SDS011;1994;48.640;8.894;2022-12-10T02:39:59;31.17;;;17.30;;
3959;SDS011;1994;48.640;8.894;2022-12-10T02:42:32;26.23;;;13.73;;
3959;SDS011;1994;48.640;8.894;2022-12-10T02:45:03;23.03;;;13.23;;
3959;SDS011;1994;48.640;8.894;2022-12-10T02:47:30;30.50;;;14.53;;
3959;SDS011;1994;48.640;8.894;2022-12-10T02:49:57;29.13;;;15.87;;
3959;SDS011;1994;48.640;8.894;2022-12-10T02:52:24;23.13;;;13.23;;
3959;SDS011;1994;48.640;8.894;2022-12-10T02:54:50;25.97;;;13.83;;
3959;SDS011;1994;48.640;8.894;2022-12-10T03:00:10;21.73;;;13.60;;
3959;SDS011;1994;48.640;8.894;2022-12-10T03:11:19;27.27;;;15.07;;
3959;SDS011;1994;48.640;8.894;2022-12-10T03:13:49;27.33;;;16.23;;
3959;SDS011;1994;48.640;8.894;2022-12-10T03:16:23;22.90;;;13.13;;
3959;SDS011;1994;48.640;8.894;2022-12-10T03:18:52;30.07;;;16.07;;
3959;SDS011;1994;48.640;8.894;2022-12-10T03:21:22;28.20;;;17.30;;
3959;SDS011;1994;48.640;8.894;2022-12-10T03:23:49;23.60;;;13.70;;
3959;SDS011;1994;48.640;8.894;2022-12-10T03:26:16;29.13;;;14.93;;
3959;SDS011;1994;48.640;8.894;2022-12-10T03:28:48;30.07;;;13.87;;
3959;SDS011;1994;48.640;8.894;2022-12-10T03:31:19;27.37;;;13.20;;
3959;SDS011;1994;48.640;8.894;2022-12-10T03:33:46;25.10;;;13.47;;
3959;SDS011;1994;48.640;8.894;2022-12-10T03:36:13;23.33;;;12.73;;
3959;SDS011;1994;48.640;8.894;2022-12-10T03:38:43;22.80;;;14.57;;
3959;SDS011;1994;48.640;8.894;2022-12-10T03:41:09;25.23;;;15.57;;
3959;SDS011;1994;48.640;8.894;2022-12-10T03:43:35;24.97;;;13.77;;
3959;SDS011;1994;48.640;8.894;2022-12-10T03:46:13;25.57;;;14.37;;
3959;SDS011;1994;48.640;8.894;2022-12-10T03:48:39;27.93;;;14.67;;
3959;SDS011;1994;48.640;8.894;2022-12-10T03:51:05;27.63;;;13.27;;
3959;SDS011;1994;48.640;8.894;2022-12-10T03:53:30;25.80;;;14.33;;
3959;SDS011;1994;48.640;8.894;2022-12-10T03:55:56;22.80;;;14.03;;
3959;SDS011;1994;48.640;8.894;2022-12-10T03:58:22;20.67;;;13.00;;
3959;SDS011;1994;48.640;8.894;2022-12-10T04:00:47;24.53;;;14.63;;
3959;SDS011;1994;48.640;8.894;2022-12-10T04:03:16;22.43;;;14.37;;
3959;SDS011;1994;48.640;8.894;2022-12-10T04:05:42;21.93;;;12.50;;
3959;SDS011;1994;48.640;8.894;2022-12-10T04:08:07;23.80;;;13.57;;
3959;SDS011;1994;48.640;8.894;2022-12-10T04:10:37;26.60;;;14.07;;
3959;SDS011;1994;48.640;8.894;2022-12-10T04:13:03;17.70;;;11.20;;
3959;SDS011;1994;48.640;8.894;2022-12-10T04:15:47;25.83;;;12.60;;
3959;SDS011;1994;48.640;8.894;2022-12-10T04:18:32;29.13;;;13.73;;
3959;SDS011;1994;48.640;8.894;2022-12-10T04:20:58;21.80;;;13.10;;
3959;SDS011;1994;48.640;8.894;2022-12-10T04:23:42;23.10;;;12.33;;
3959;SDS011;1994;48.640;8.894;2022-12-10T04:26:26;23.77;;;13.87;;
3959;SDS011;1994;48.640;8.894;2022-12-10T04:29:11;21.10;;;14.00;;
3959;SDS011;1994;48.640;8.894;2022-12-10T04:31:37;22.03;;;13.60;;
3959;SDS011;1994;48.640;8.894;2022-12-10T04:34:03;24.33;;;14.03;;
3959;SDS011;1994;48.640;8.894;2022-12-10T04:36:28;25.30;;;13.97;;
3959;SDS011;1994;48.640;8.894;2022-12-10T04:38:54;23.63;;;12.63;;
3959;SDS011;1994;48.640;8.894;2022-12-10T04:41:20;27.87;;;15.33;;
3959;SDS011;1994;48.640;8.894;2022-12-10T04:43:45;23.77;;;12.57;;
3959;SDS011;1994;48.640;8.894;2022-12-10T04:46:11;21.57;;;12.73;;
3959;SDS011;1994;48.640;8.894;2022-12-10T04:48:37;24.37;;;13.90;;
3959;SDS011;1994;48.640;8.894;2022-12-10T04:51:02;18.80;;;12.27;;
3959;SDS011;1994;48.640;8.894;2022-12-10T04:53:29;21.00;;;12.00;;
3959;SDS011;1994;48.640;8.894;2022-12-10T04:55:55;27.00;;;13.60;;
3959;SDS011;1994;48.640;8.894;2022-12-10T04:58:20;19.47;;;11.97;;
3959;SDS011;1994;48.640;8.894;2022-12-10T05:00:46;22.80;;;11.93;;
3959;SDS011;1994;48.640;8.894;2022-12-10T05:03:12;20.63;;;12.47;;
3959;SDS011;1994;48.640;8.894;2022-12-10T05:05:40;23.13;;;12.57;;
3959;SDS011;1994;48.640;8.894;2022-12-10T05:08:05;21.53;;;12.77;;
3959;SDS011;1994;48.640;8.894;2022-12-10T05:10:33;22.17;;;14.10;;
3959;SDS011;1994;48.640;8.894;2022-12-10T05:12:59;23.47;;;12.67;;
3959;SDS011;1994;48.640;8.894;2022-12-10T05:15:25;27.47;;;12.77;;
3959;SDS011;1994;48.640;8.894;2022-12-10T05:17:51;28.27;;;14.07;;
3959;SDS011;1994;48.640;8.894;2022-12-10T05:20:16;24.63;;;14.10;;
3959;SDS011;1994;48.640;8.894;2022-12-10T05:22:42;27.53;;;13.23;;
3959;SDS011;1994;48.640;8.894;2022-12-10T05:25:26;20.87;;;13.00;;
3959;SDS011;1994;48.640;8.894;2022-12-10T05:27:52;23.00;;;12.23;;
3959;SDS011;1994;48.640;8.894;2022-12-10T05:30:18;19.70;;;11.70;;
3959;SDS011;1994;48.640;8.894;2022-12-10T05:32:43;24.10;;;13.73;;
3959;SDS011;1994;48.640;8.894;2022-12-10T05:35:09;20.07;;;12.07;;
3959;SDS011;1994;48.640;8.894;2022-12-10T05:37:35;21.30;;;12.60;;
3959;SDS011;1994;48.640;8.894;2022-12-10T05:40:00;20.30;;;11.93;;
3959;SDS011;1994;48.640;8.894;2022-12-10T05:42:26;21.50;;;13.33;;
3959;SDS011;1994;48.640;8.894;2022-12-10T05:44:53;24.10;;;12.80;;
3959;SDS011;1994;48.640;8.894;2022-12-10T05:47:19;24.30;;;12.70;;
3959;SDS011;1994;48.640;8.894;2022-12-10T05:49:44;21.93;;;13.47;;
3959;SDS011;1994;48.640;8.894;2022-12-10T05:52:12;26.60;;;13.23;;
3959;SDS011;1994;48.640;8.894;2022-12-10T05:54:37;26.03;;;12.27;;
3959;SDS011;1994;48.640;8.894;2022-12-10T05:57:03;22.30;;;12.40;;
3959;SDS011;1994;48.640;8.894;2022-12-10T05:59:29;22.60;;;12.13;;
3959;SDS011;1994;48.640;8.894;2022-12-10T06:01:54;21.40;;;12.67;;
3959;SDS011;1994;48.640;8.894;2022-12-10T06:04:20;21.67;;;12.27;;
3959;SDS011;1994;48.640;8.894;2022-12-10T06:06:46;20.23;;;12.77;;
3959;SDS011;1994;48.640;8.894;2022-12-10T06:09:13;23.73;;;12.67;;
3959;SDS011;1994;48.640;8.894;2022-12-10T06:11:39;22.93;;;13.20;;
3959;SDS011;1994;48.640;8.894;2022-12-10T06:14:06;20.07;;;13.53;;
3959;SDS011;1994;48.640;8.894;2022-12-10T06:16:31;19.50;;;13.50;;
3959;SDS011;1994;48.640;8.894;2022-12-10T06:18:57;21.73;;;12.60;;
3959;SDS011;1994;48.640;8.894;2022-12-10T06:21:23;22.43;;;12.57;;
3959;SDS011;1994;48.640;8.894;2022-12-10T06:23:50;21.80;;;12.30;;
3959;SDS011;1994;48.640;8.894;2022-12-10T06:26:20;21.43;;;13.30;;
3959;SDS011;1994;48.640;8.894;2022-12-10T06:28:49;16.77;;;11.30;;
3959;SDS011;1994;48.640;8.894;2022-12-10T06:31:20;21.37;;;13.23;;
3959;SDS011;1994;48.640;8.894;2022-12-10T06:33:47;24.20;;;12.77;;
3959;SDS011;1994;48.640;8.894;2022-12-10T06:36:13;24.10;;;13.30;;
3959;SDS011;1994;48.640;8.894;2022-12-10T06:38:44;23.40;;;13.83;;
3959;SDS011;1994;48.640;8.894;2022-12-10T06:41:11;24.10;;;14.40;;
3959;SDS011;1994;48.640;8.894;2022-12-10T06:43:39;18.77;;;12.17;;
3959;SDS011;1994;48.640;8.894;2022-12-10T06:46:05;25.53;;;13.47;;
3959;SDS011;1994;48.640;8.894;2022-12-10T06:48:36;22.43;;;13.17;;
3959;SDS011;1994;48.640;8.894;2022-12-10T06:51:03;18.83;;;12.20;;
3959;SDS011;1994;48.640;8.894;2022-12-10T06:53:30;18.97;;;12.13;;
3959;SDS011;1994;48.640;8.894;2022-12-10T06:55:58;23.90;;;15.27;;
3959;SDS011;1994;48.640;8.894;2022-12-10T06:58:26;23.10;;;12.87;;
3959;SDS011;1994;48.640;8.894;2022-12-10T07:01:04;18.10;;;12.27;;
3959;SDS011;1994;48.640;8.894;2022-12-10T07:03:36;20.03;;;12.93;;
3959;SDS011;1994;48.640;8.894;2022-12-10T07:06:05;23.33;;;13.33;;
3959;SDS011;1994;48.640;8.894;2022-12-10T07:08:33;18.57;;;11.10;;
3959;SDS011;1994;48.640;8.894;2022-12-10T07:11:03;20.77;;;12.77;;
3959;SDS011;1994;48.640;8.894;2022-12-10T07:13:30;23.20;;;12.90;;
3959;SDS011;1994;48.640;8.894;2022-12-10T07:15:56;24.20;;;14.57;;
3959;SDS011;1994;48.640;8.894;2022-12-10T07:18:22;19.80;;;11.90;;
3959;SDS011;1994;48.640;8.894;2022-12-10T07:20:48;23.53;;;14.93;;
3959;SDS011;1994;48.640;8.894;2022-12-10T07:23:14;19.03;;;12.60;;
3959;SDS011;1994;48.640;8.894;2022-12-10T07:25:39;20.33;;;12.80;;
3959;SDS011;1994;48.640;8.894;2022-12-10T07:28:05;21.80;;;13.63;;
3959;SDS011;1994;48.640;8.894;2022-12-10T07:30:31;21.93;;;13.33;;
3959;SDS011;1994;48.640;8.894;2022-12-10T07:32:57;21.37;;;12.67;;
3959;SDS011;1994;48.640;8.894;2022-12-10T07:35:22;28.33;;;14.70;;
3959;SDS011;1994;48.640;8.894;2022-12-10T07:37:48;28.60;;;14.50;;
3959;SDS011;1994;48.640;8.894;2022-12-10T07:40:14;21.80;;;12.93;;
3959;SDS011;1994;48.640;8.894;2022-12-10T07:42:39;26.30;;;12.90;;
3959;SDS011;1994;48.640;8.894;2022-12-10T07:45:06;21.30;;;12.80;;
3959;SDS011;1994;48.640;8.894;2022-12-10T07:47:35;21.67;;;12.57;;
3959;SDS011;1994;48.640;8.894;2022-12-10T07:50:02;25.87;;;13.33;;
3959;SDS011;1994;48.640;8.894;2022-12-10T07:52:32;20.97;;;12.17;;
3959;SDS011;1994;48.640;8.894;2022-12-10T07:54:57;25.70;;;13.27;;
3959;SDS011;1994;48.640;8.894;2022-12-10T07:57:23;24.93;;;13.57;;
3959;SDS011;1994;48.640;8.894;2022-12-10T07:59:49;25.60;;;13.07;;
3959;SDS011;1994;48.640;8.894;2022-12-10T08:02:14;23.77;;;13.60;;
3959;SDS011;1994;48.640;8.894;2022-12-10T08:04:40;28.83;;;14.30;;
3959;SDS011;1994;48.640;8.894;2022-12-10T08:07:06;21.90;;;11.77;;
3959;SDS011;1994;48.640;8.894;2022-12-10T08:09:33;25.37;;;14.20;;
3959;SDS011;1994;48.640;8.894;2022-12-10T08:11:59;26.63;;;14.53;;
3959;SDS011;1994;48.640;8.894;2022-12-10T08:14:25;24.43;;;13.20;;
3959;SDS011;1994;48.640;8.894;2022-12-10T08:16:51;26.43;;;14.67;;
3959;SDS011;1994;48.640;8.894;2022-12-10T08:19:16;25.47;;;14.33;;
3959;SDS011;1994;48.640;8.894;2022-12-10T08:21:42;28.60;;;15.70;;
3959;SDS011;1994;48.640;8.894;2022-12-10T08:24:08;28.10;;;17.73;;
3959;SDS011;1994;48.640;8.894;2022-12-10T08:26:34;54.00;;;23.80;;
3959;SDS011;1994;48.640;8.894;2022-12-10T08:29:00;38.60;;;20.10;;
3959;SDS011;1994;48.640;8.894;2022-12-10T08:31:26;47.93;;;26.83;;
3959;SDS011;1994;48.640;8.894;2022-12-10T08:33:53;33.90;;;18.07;;
3959;SDS011;1994;48.640;8.894;2022-12-10T08:36:19;32.40;;;17.00;;
3959;SDS011;1994;48.640;8.894;2022-12-10T08:38:46;27.57;;;15.70;;
3959;SDS011;1994;48.640;8.894;2022-12-10T08:41:19;30.87;;;15.50;;
3959;SDS011;1994;48.640;8.894;2022-12-10T08:43:47;25.87;;;13.17;;
3959;SDS011;1994;48.640;8.894;2022-12-10T08:46:14;30.43;;;15.30;;
3959;SDS011;1994;48.640;8.894;2022-12-10T08:48:41;29.77;;;15.60;;
3959;SDS011;1994;48.640;8.894;2022-12-10T08:51:08;27.80;;;15.03;;
3959;SDS011;1994;48.640;8.894;2022-12-10T08:53:39;24.70;;;14.57;;
3959;SDS011;1994;48.640;8.894;2022-12-10T08:56:05;22.23;;;13.33;;
3959;SDS011;1994;48.640;8.894;2022-12-10T08:58:31;20.80;;;13.03;;
3959;SDS011;1994;48.640;8.894;2022-12-10T09:00:57;22.83;;;13.80;;
3959;SDS011;1994;48.640;8.894;2022-12-10T09:03:23;24.10;;;13.20;;
3959;SDS011;1994;48.640;8.894;2022-12-10T09:05:50;24.70;;;14.90;;
3959;SDS011;1994;48.640;8.894;2022-12-10T09:08:15;26.83;;;14.93;;
3959;SDS011;1994;48.640;8.894;2022-12-10T09:10:41;29.20;;;18.47;;
3959;SDS011;1994;48.640;8.894;2022-12-10T09:13:07;24.10;;;15.40;;
3959;SDS011;1994;48.640;8.894;2022-12-10T09:15:33;20.57;;;14.60;;
3959;SDS011;1994;48.640;8.894;2022-12-10T09:17:59;25.90;;;13.50;;
3959;SDS011;1994;48.640;8.894;2022-12-10T09:20:25;24.97;;;13.97;;
3959;SDS011;1994;48.640;8.894;2022-12-10T09:22:51;20.83;;;13.10;;
3959;SDS011;1994;48.640;8.894;2022-12-10T09:25:17;21.97;;;13.23;;
3959;SDS011;1994;48.640;8.894;2022-12-10T09:27:46;25.13;;;15.00;;
3959;SDS011;1994;48.640;8.894;2022-12-10T09:30:12;20.40;;;13.50;;
3959;SDS011;1994;48.640;8.894;2022-12-10T09:32:38;20.80;;;12.10;;
3959;SDS011;1994;48.640;8.894;2022-12-10T09:35:03;20.27;;;13.10;;
3959;SDS011;1994;48.640;8.894;2022-12-10T09:37:31;21.27;;;12.13;;
3959;SDS011;1994;48.640;8.894;2022-12-10T09:39:57;23.53;;;13.17;;
3959;SDS011;1994;48.640;8.894;2022-12-10T09:45:18;20.57;;;12.47;;
3959;SDS011;1994;48.640;8.894;2022-12-10T09:50:45;26.73;;;13.60;;
3959;SDS011;1994;48.640;8.894;2022-12-10T09:53:30;20.57;;;12.70;;
3959;SDS011;1994;48.640;8.894;2022-12-10T09:55:57;21.43;;;11.60;;
3959;SDS011;1994;48.640;8.894;2022-12-10T09:58:24;20.43;;;12.77;;
3959;SDS011;1994;48.640;8.894;2022-12-10T10:00:59;24.03;;;12.17;;
3959;SDS011;1994;48.640;8.894;2022-12-10T10:06:13;22.17;;;12.60;;
3959;SDS011;1994;48.640;8.894;2022-12-10T10:08:47;38.90;;;17.17;;
3959;SDS011;1994;48.640;8.894;2022-12-10T10:11:25;35.60;;;17.70;;
3959;SDS011;1994;48.640;8.894;2022-12-10T10:13:59;36.60;;;19.60;;
3959;SDS011;1994;48.640;8.894;2022-12-10T10:16:36;34.23;;;17.37;;
3959;SDS011;1994;48.640;8.894;2022-12-10T10:19:14;30.70;;;17.07;;
3959;SDS011;1994;48.640;8.894;2022-12-10T10:21:48;23.57;;;13.20;;
3959;SDS011;1994;48.640;8.894;2022-12-10T10:24:19;27.40;;;15.60;;
3959;SDS011;1994;48.640;8.894;2022-12-10T10:26:48;25.70;;;14.63;;
3959;SDS011;1994;48.640;8.894;2022-12-10T10:29:18;23.57;;;12.40;;
3959;SDS011;1994;48.640;8.894;2022-12-10T10:31:57;22.40;;;12.60;;
3959;SDS011;1994;48.640;8.894;2022-12-10T10:34:51;22.00;;;13.87;;
3959;SDS011;1994;48.640;8.894;2022-12-10T10:37:21;24.97;;;12.03;;
3959;SDS011;1994;48.640;8.894;2022-12-10T10:39:56;22.73;;;13.23;;
3959;SDS011;1994;48.640;8.894;2022-12-10T10:45:05;19.80;;;11.13;;
3959;SDS011;1994;48.640;8.894;2022-12-10T10:48:03;16.83;;;10.60;;
3959;SDS011;1994;48.640;8.894;2022-12-10T10:50:45;18.53;;;11.30;;
3959;SDS011;1994;48.640;8.894;2022-12-10T11:01:51;25.53;;;13.73;;
3959;SDS011;1994;48.640;8.894;2022-12-10T11:04:43;20.67;;;13.63;;
3959;SDS011;1994;48.640;8.894;2022-12-10T11:07:19;20.07;;;11.10;;
3959;SDS011;1994;48.640;8.894;2022-12-10T11:09:55;20.13;;;12.70;;
3959;SDS011;1994;48.640;8.894;2022-12-10T11:12:42;21.20;;;12.20;;
3959;SDS011;1994;48.640;8.894;2022-12-10T11:15:53;20.23;;;11.90;;
3959;SDS011;1994;48.640;8.894;2022-12-10T11:21:03;25.50;;;16.90;;
3959;SDS011;1994;48.640;8.894;2022-12-10T11:23:56;22.57;;;12.00;;
3959;SDS011;1994;48.640;8.894;2022-12-10T11:26:30;23.00;;;12.20;;
3959;SDS011;1994;48.640;8.894;2022-12-10T11:35:47;18.97;;;11.57;;
3959;SDS011;1994;48.640;8.894;2022-12-10T11:47:32;20.93;;;10.43;;
3959;SDS011;1994;48.640;8.894;2022-12-10T11:51:00;15.40;;;10.53;;
3959;SDS011;1994;48.640;8.894;2022-12-10T11:56:31;20.17;;;11.60;;
3959;SDS011;1994;48.640;8.894;2022-12-10T12:14:26;25.20;;;12.87;;
3959;SDS011;1994;48.640;8.894;2022-12-10T12:17:16;30.83;;;15.93;;
3959;SDS011;1994;48.640;8.894;2022-12-10T12:19:52;26.50;;;14.60;;
3959;SDS011;1994;48.640;8.894;2022-12-10T12:22:58;23.83;;;11.80;;
3959;SDS011;1994;48.640;8.894;2022-12-10T12:25:39;17.67;;;10.43;;
3959;SDS011;1994;48.640;8.894;2022-12-10T12:30:58;13.50;;;8.93;;
3959;SDS011;1994;48.640;8.894;2022-12-10T12:33:39;12.97;;;9.10;;
3959;SDS011;1994;48.640;8.894;2022-12-10T12:36:29;15.93;;;8.90;;
3959;SDS011;1994;48.640;8.894;2022-12-10T12:41:55;18.87;;;10.53;;
3959;SDS011;1994;48.640;8.894;2022-12-10T12:44:41;16.47;;;10.70;;
3959;SDS011;1994;48.640;8.894;2022-12-10T12:47:39;34.53;;;15.63;;
3959;SDS011;1994;48.640;8.894;2022-12-10T12:50:28;36.17;;;15.70;;
3959;SDS011;1994;48.640;8.894;2022-12-10T12:53:35;54.37;;;27.90;;
3959;SDS011;1994;48.640;8.894;2022-12-10T12:58:59;22.27;;;15.30;;
3959;SDS011;1994;48.640;8.894;2022-12-10T13:01:57;15.00;;;9.83;;
3959;SDS011;1994;48.640;8.894;2022-12-10T13:04:39;13.00;;;9.50;;
3959;SDS011;1994;48.640;8.894;2022-12-10T13:10:07;17.77;;;9.33;;
3959;SDS011;1994;48.640;8.894;2022-12-10T13:24:07;18.37;;;8.90;;
3959;SDS011;1994;48.640;8.894;2022-12-10T13:27:03;14.00;;;8.60;;
3959;SDS011;1994;48.640;8.894;2022-12-10T13:32:21;12.70;;;8.67;;
3959;SDS011;1994;48.640;8.894;2022-12-10T13:49:27;14.27;;;8.07;;
3959;SDS011;1994;48.640;8.894;2022-12-10T13:52:00;13.37;;;7.80;;
3959;SDS011;1994;48.640;8.894;2022-12-10T14:00:53;12.13;;;8.20;;
3959;SDS011;1994;48.640;8.894;2022-12-10T14:03:40;16.87;;;11.07;;
3959;SDS011;1994;48.640;8.894;2022-12-10T14:06:15;32.70;;;14.43;;
3959;SDS011;1994;48.640;8.894;2022-12-10T14:09:26;28.10;;;14.53;;
3959;SDS011;1994;48.640;8.894;2022-12-10T14:12:06;15.00;;;9.20;;
3959;SDS011;1994;48.640;8.894;2022-12-10T14:14:41;11.50;;;8.50;;
3959;SDS011;1994;48.640;8.894;2022-12-10T14:17:16;12.90;;;8.13;;
3959;SDS011;1994;48.640;8.894;2022-12-10T14:19:46;11.60;;;8.20;;
3959;SDS011;1994;48.640;8.894;2022-12-10T14:22:30;13.60;;;8.97;;
3959;SDS011;1994;48.640;8.894;2022-12-10T14:25:00;13.50;;;8.33;;
3959;SDS011;1994;48.640;8.894;2022-12-10T14:27:37;16.07;;;9.50;;
3959;SDS011;1994;48.640;8.894;2022-12-10T14:32:54;15.60;;;10.03;;
3959;SDS011;1994;48.640;8.894;2022-12-10T14:35:24;20.13;;;10.70;;
3959;SDS011;1994;48.640;8.894;2022-12-10T14:37:57;32.17;;;16.20;;
3959;SDS011;1994;48.640;8.894;2022-12-10T14:40:40;40.27;;;19.17;;
3959;SDS011;1994;48.640;8.894;2022-12-10T14:43:20;24.47;;;13.20;;
3959;SDS011;1994;48.640;8.894;2022-12-10T14:46:18;20.03;;;12.67;;
3959;SDS011;1994;48.640;8.894;2022-12-10T14:48:50;18.23;;;11.07;;
3959;SDS011;1994;48.640;8.894;2022-12-10T14:51:21;20.23;;;10.87;;
3959;SDS011;1994;48.640;8.894;2022-12-10T14:53:51;24.20;;;12.33;;
3959;SDS011;1994;48.640;8.894;2022-12-10T14:56:20;14.67;;;9.93;;
3959;SDS011;1994;48.640;8.894;2022-12-10T14:59:13;19.33;;;10.93;;
3959;SDS011;1994;48.640;8.894;2022-12-10T15:01:55;15.60;;;10.07;;
3959;SDS011;1994;48.640;8.894;2022-12-10T15:04:24;14.03;;;9.27;;
3959;SDS011;1994;48.640;8.894;2022-12-10T15:07:07;12.80;;;8.90;;
3959;SDS011;1994;48.640;8.894;2022-12-10T15:09:41;12.23;;;9.30;;
3959;SDS011;1994;48.640;8.894;2022-12-10T15:12:15;18.80;;;10.07;;
3959;SDS011;1994;48.640;8.894;2022-12-10T15:15:30;20.27;;;11.63;;
3959;SDS011;1994;48.640;8.894;2022-12-10T15:18:02;14.67;;;10.00;;
3959;SDS011;1994;48.640;8.894;2022-12-10T15:20:53;14.83;;;9.20;;
3959;SDS011;1994;48.640;8.894;2022-12-10T15:28:30;19.33;;;10.97;;
3959;SDS011;1994;48.640;8.894;2022-12-10T15:33:53;21.20;;;10.30;;
3959;SDS011;1994;48.640;8.894;2022-12-10T15:39:04;23.40;;;12.20;;
3959;SDS011;1994;48.640;8.894;2022-12-10T15:47:17;12.20;;;7.40;;
3959;SDS011;1994;48.640;8.894;2022-12-10T15:49:51;14.50;;;8.27;;
3959;SDS011;1994;48.640;8.894;2022-12-10T15:52:20;12.67;;;8.00;;
3959;SDS011;1994;48.640;8.894;2022-12-10T15:54:53;18.63;;;10.20;;
3959;SDS011;1994;48.640;8.894;2022-12-10T15:57:25;12.40;;;7.73;;
3959;SDS011;1994;48.640;8.894;2022-12-10T15:59:58;14.37;;;8.53;;
3959;SDS011;1994;48.640;8.894;2022-12-10T16:02:47;11.77;;;7.03;;
3959;SDS011;1994;48.640;8.894;2022-12-10T16:05:20;11.07;;;7.40;;
3959;SDS011;1994;48.640;8.894;2022-12-10T16:07:54;13.80;;;8.60;;
3959;SDS011;1994;48.640;8.894;2022-12-10T16:10:24;16.40;;;7.73;;
3959;SDS011;1994;48.640;8.894;2022-12-10T16:12:59;14.30;;;8.63;;
3959;SDS011;1994;48.640;8.894;2022-12-10T16:15:36;14.73;;;9.17;;
3959;SDS011;1994;48.640;8.894;2022-12-10T16:18:13;11.37;;;7.27;;
3959;SDS011;1994;48.640;8.894;2022-12-10T16:20:48;13.97;;;8.07;;
3959;SDS011;1994;48.640;8.894;2022-12-10T16:23:14;17.23;;;9.07;;
3959;SDS011;1994;48.640;8.894;2022-12-10T16:25:41;13.40;;;8.60;;
3959;SDS011;1994;48.640;8.894;2022-12-10T16:28:13;12.50;;;8.50;;
3959;SDS011;1994;48.640;8.894;2022-12-10T16:30:45;12.10;;;7.50;;
3959;SDS011;1994;48.640;8.894;2022-12-10T16:33:24;11.90;;;7.87;;
3959;SDS011;1994;48.640;8.894;2022-12-10T16:35:53;11.17;;;7.43;;
3959;SDS011;1994;48.640;8.894;2022-12-10T16:38:22;13.83;;;8.63;;
3959;SDS011;1994;48.640;8.894;2022-12-10T16:40:49;14.90;;;8.73;;
3959;SDS011;1994;48.640;8.894;2022-12-10T16:43:16;16.30;;;10.10;;
3959;SDS011;1994;48.640;8.894;2022-12-10T16:45:47;16.23;;;9.40;;
3959;SDS011;1994;48.640;8.894;2022-12-10T16:48:15;19.77;;;12.87;;
3959;SDS011;1994;48.640;8.894;2022-12-10T16:50:41;21.33;;;13.13;;
3959;SDS011;1994;48.640;8.894;2022-12-10T16:53:18;24.00;;;14.17;;
3959;SDS011;1994;48.640;8.894;2022-12-10T16:55:53;32.83;;;18.37;;
3959;SDS011;1994;48.640;8.894;2022-12-10T16:58:20;33.50;;;19.00;;
3959;SDS011;1994;48.640;8.894;2022-12-10T17:00:48;32.47;;;17.60;;
3959;SDS011;1994;48.640;8.894;2022-12-10T17:03:18;18.53;;;11.00;;
3959;SDS011;1994;48.640;8.894;2022-12-10T17:05:54;22.80;;;12.30;;
3959;SDS011;1994;48.640;8.894;2022-12-10T17:08:25;16.50;;;10.77;;
3959;SDS011;1994;48.640;8.894;2022-12-10T17:10:53;20.33;;;12.17;;
3959;SDS011;1994;48.640;8.894;2022-12-10T17:13:39;21.97;;;12.90;;
3959;SDS011;1994;48.640;8.894;2022-12-10T17:16:08;20.90;;;14.13;;
3959;SDS011;1994;48.640;8.894;2022-12-10T17:18:46;24.77;;;15.37;;
3959;SDS011;1994;48.640;8.894;2022-12-10T17:21:12;21.23;;;13.23;;
3959;SDS011;1994;48.640;8.894;2022-12-10T17:23:37;14.43;;;11.73;;
3959;SDS011;1994;48.640;8.894;2022-12-10T17:26:03;18.90;;;11.07;;
3959;SDS011;1994;48.640;8.894;2022-12-10T17:28:29;13.20;;;9.87;;
3959;SDS011;1994;48.640;8.894;2022-12-10T17:30:56;20.37;;;13.07;;
3959;SDS011;1994;48.640;8.894;2022-12-10T17:33:22;21.43;;;13.80;;
3959;SDS011;1994;48.640;8.894;2022-12-10T17:35:49;15.90;;;11.40;;
3959;SDS011;1994;48.640;8.894;2022-12-10T17:38:18;14.10;;;9.13;;
3959;SDS011;1994;48.640;8.894;2022-12-10T17:40:48;13.17;;;9.00;;